createdAt,value
2019-02-18T00:00:21.866Z,305.73
2019-02-18T00:01:21.852Z,305.58
2019-02-18T00:02:21.835Z,305.95
2019-02-18T00:03:21.870Z,306.16
2019-02-18T00:04:21.848Z,306.03
2019-02-18T00:05:21.817Z,306.14
2019-02-18T00:06:21.789Z,305.68
2019-02-18T00:07:21.781Z,305.46
2019-02-18T00:08:21.763Z,306.01
2019-02-18T00:09:21.750Z,305.77
2019-02-18T00:10:21.774Z,305.50
2019-02-18T00:11:21.743Z,305.78
2019-02-18T00:12:21.721Z,305.52
2019-02-18T00:13:21.708Z,305.65
2019-02-18T00:14:21.737Z,305.45
2019-02-18T00:15:21.699Z,305.87
2019-02-18T00:16:21.687Z,305.84
2019-02-18T00:17:21.676Z,305.63
2019-02-18T00:18:21.650Z,305.72
2019-02-18T00:19:21.643Z,305.50
2019-02-18T00:20:21.665Z,305.64
2019-02-18T00:21:21.639Z,305.34
2019-02-18T00:22:21.870Z,305.73
2019-02-18T00:23:21.602Z,305.11
2019-02-18T00:24:21.589Z,305.58
2019-02-18T00:25:21.595Z,305.69
2019-02-18T00:26:21.580Z,305.97
2019-02-18T00:27:21.570Z,304.88
2019-02-18T00:28:21.551Z,305.24
2019-02-18T00:29:21.564Z,305.79
2019-02-18T00:30:21.546Z,305.59
2019-02-18T00:31:21.514Z,305.77
2019-02-18T00:32:21.498Z,305.87
2019-02-18T00:33:21.495Z,305.59
2019-02-18T00:34:21.493Z,305.70
2019-02-18T00:35:21.497Z,305.39
2019-02-18T00:36:21.454Z,305.90
2019-02-18T00:37:24.557Z,305.89
2019-02-18T00:38:21.443Z,305.73
2019-02-18T00:39:21.435Z,305.83
2019-02-18T00:40:21.458Z,305.64
2019-02-18T00:41:21.411Z,305.53
2019-02-18T00:42:21.396Z,305.64
2019-02-18T00:43:21.389Z,305.71
2019-02-18T00:44:21.382Z,305.26
2019-02-18T00:45:21.356Z,305.76
2019-02-18T00:46:21.389Z,305.95
2019-02-18T00:47:21.422Z,305.73
2019-02-18T00:48:21.337Z,305.29
2019-02-18T00:49:21.324Z,305.47
2019-02-18T00:50:21.312Z,305.68
2019-02-18T00:51:21.305Z,305.57
2019-02-18T00:52:21.328Z,305.60
2019-02-18T00:53:21.283Z,305.50
2019-02-18T00:54:21.262Z,305.78
2019-02-18T00:55:21.248Z,305.68
2019-02-18T00:56:21.256Z,305.87
2019-02-18T00:57:21.232Z,305.62
2019-02-18T00:58:21.231Z,305.75
2019-02-18T00:59:21.219Z,305.61
2019-02-18T01:00:21.213Z,306.16
2019-02-18T01:01:21.232Z,305.88
2019-02-18T01:02:21.177Z,305.78
2019-02-18T01:03:21.162Z,305.56
2019-02-18T01:04:21.157Z,305.97
2019-02-18T01:05:21.141Z,305.64
2019-02-18T01:06:21.139Z,305.87
2019-02-18T01:07:21.175Z,305.80
2019-02-18T01:08:21.114Z,305.69
2019-02-18T01:09:21.108Z,305.46
2019-02-18T01:10:21.119Z,305.76
2019-02-18T01:11:21.088Z,305.77
2019-02-18T01:12:21.080Z,305.85
2019-02-18T01:13:21.085Z,305.84
2019-02-18T01:14:21.041Z,305.97
2019-02-18T01:15:21.031Z,306.25
2019-02-18T01:16:21.026Z,306.26
2019-02-18T01:17:21.010Z,305.73
2019-02-18T01:18:21.034Z,306.27
2019-02-18T01:19:21.000Z,305.95
2019-02-18T01:20:20.988Z,305.97
2019-02-18T01:21:20.993Z,305.93
2019-02-18T01:22:20.961Z,306.08
2019-02-18T01:23:20.969Z,306.11
2019-02-18T01:24:20.938Z,305.67
2019-02-18T01:25:20.940Z,305.68
2019-02-18T01:26:20.908Z,306.01
2019-02-18T01:27:20.897Z,305.93
2019-02-18T01:28:20.912Z,306.20
2019-02-18T01:29:20.881Z,305.86
2019-02-18T01:30:20.875Z,305.93
2019-02-18T01:31:20.862Z,305.76
2019-02-18T01:32:20.853Z,305.60
2019-02-18T01:33:20.845Z,305.84
2019-02-18T01:34:20.843Z,305.70
2019-02-18T01:35:20.809Z,306.04
2019-02-18T01:36:22.951Z,306.25
2019-02-18T01:37:20.792Z,305.87
2019-02-18T01:38:20.790Z,305.56
2019-02-18T01:39:20.795Z,306.21
2019-02-18T01:40:20.761Z,305.85
2019-02-18T01:41:20.744Z,305.76
2019-02-18T01:42:20.815Z,306.10
2019-02-18T01:43:20.729Z,305.68
2019-02-18T01:44:20.743Z,305.76
2019-02-18T01:45:20.704Z,305.87
2019-02-18T01:46:20.699Z,306.08
2019-02-18T01:47:20.678Z,305.63
2019-02-18T01:48:20.671Z,306.09
2019-02-18T01:49:20.656Z,305.72
2019-02-18T01:50:20.693Z,305.74
2019-02-18T01:51:20.643Z,306.24
2019-02-18T01:52:20.684Z,306.38
2019-02-18T01:53:20.625Z,305.97
2019-02-18T01:54:20.597Z,305.86
2019-02-18T01:55:20.590Z,305.55
2019-02-18T01:56:20.602Z,305.76
2019-02-18T01:57:20.579Z,305.98
2019-02-18T01:58:20.555Z,305.78
2019-02-18T01:59:20.547Z,305.53
2019-02-18T02:00:20.545Z,305.72
2019-02-18T02:01:20.550Z,305.78
2019-02-18T02:02:20.524Z,305.73
2019-02-18T02:03:20.517Z,305.67
2019-02-18T02:04:20.503Z,305.96
2019-02-18T02:05:20.496Z,305.84
2019-02-18T02:06:20.499Z,306.01
2019-02-18T02:07:20.465Z,305.82
2019-02-18T02:08:20.455Z,306.03
2019-02-18T02:09:20.442Z,305.83
2019-02-18T02:10:20.444Z,305.75
2019-02-18T02:11:20.458Z,306.04
2019-02-18T02:12:20.402Z,306.14
2019-02-18T02:13:20.400Z,305.68
2019-02-18T02:14:20.402Z,306.10
2019-02-18T02:15:20.389Z,306.06
2019-02-18T02:16:20.374Z,305.77
2019-02-18T02:17:20.387Z,306.00
2019-02-18T02:18:20.349Z,305.53
2019-02-18T02:19:20.341Z,305.77
2019-02-18T02:20:20.330Z,306.60
2019-02-18T02:21:20.313Z,305.77
2019-02-18T02:22:20.339Z,305.99
2019-02-18T02:23:20.306Z,305.87
2019-02-18T02:24:20.292Z,305.75
2019-02-18T02:25:20.285Z,305.88
2019-02-18T02:26:20.260Z,305.66
2019-02-18T02:27:20.248Z,306.01
2019-02-18T02:28:20.265Z,305.88
2019-02-18T02:29:20.241Z,306.01
2019-02-18T02:30:20.218Z,305.45
2019-02-18T02:31:20.207Z,305.77
2019-02-18T02:32:20.192Z,305.80
2019-02-18T02:33:20.216Z,305.81
2019-02-18T02:34:20.177Z,305.60
2019-02-18T02:35:20.178Z,306.02
2019-02-18T02:36:20.154Z,306.00
2019-02-18T02:37:20.145Z,306.28
2019-02-18T02:38:20.123Z,305.84
2019-02-18T02:39:20.132Z,305.92
2019-02-18T02:40:20.110Z,305.59
2019-02-18T02:41:20.094Z,305.75
2019-02-18T02:42:20.101Z,306.07
2019-02-18T02:43:20.094Z,305.88
2019-02-18T02:44:20.080Z,305.54
2019-02-18T02:45:20.058Z,305.33
2019-02-18T02:46:20.049Z,305.67
2019-02-18T02:47:20.050Z,306.10
2019-02-18T02:48:20.025Z,305.53
2019-02-18T02:49:20.040Z,305.83
2019-02-18T02:50:19.994Z,305.90
2019-02-18T02:51:19.987Z,305.65
2019-02-18T02:52:19.973Z,305.91
2019-02-18T02:53:19.969Z,305.73
2019-02-18T02:54:19.984Z,305.87
2019-02-18T02:55:19.947Z,305.70
2019-02-18T02:56:19.934Z,305.57
2019-02-18T02:57:19.931Z,305.67
2019-02-18T02:58:20.078Z,305.75
2019-02-18T02:59:20.231Z,305.64
2019-02-18T03:00:20.055Z,305.64
2019-02-18T03:01:19.886Z,305.31
2019-02-18T03:02:19.862Z,305.86
2019-02-18T03:03:19.854Z,305.56
2019-02-18T03:04:19.886Z,306.02
2019-02-18T03:05:19.831Z,305.58
2019-02-18T03:06:19.826Z,305.67
2019-02-18T03:07:19.818Z,305.85
2019-02-18T03:08:20.811Z,306.05
2019-02-18T03:09:19.819Z,305.84
2019-02-18T03:10:19.780Z,305.60
2019-02-18T03:11:19.763Z,305.77
2019-02-18T03:12:19.752Z,305.77
2019-02-18T03:13:19.745Z,305.68
2019-02-18T03:14:19.768Z,305.77
2019-02-18T03:15:19.729Z,305.79
2019-02-18T03:16:19.713Z,305.68
2019-02-18T03:17:19.697Z,305.34
2019-02-18T03:18:19.701Z,305.54
2019-02-18T03:19:19.682Z,305.93
2019-02-18T03:20:19.689Z,305.85
2019-02-18T03:21:19.658Z,305.95
2019-02-18T03:22:19.648Z,305.69
2019-02-18T03:23:19.637Z,305.73
2019-02-18T03:24:19.622Z,305.80
2019-02-18T03:25:19.646Z,305.34
2019-02-18T03:26:19.617Z,305.66
2019-02-18T03:27:19.594Z,305.92
2019-02-18T03:28:19.590Z,305.95
2019-02-18T03:29:19.576Z,305.91
2019-02-18T03:30:19.558Z,305.88
2019-02-18T03:31:19.573Z,305.92
2019-02-18T03:32:19.547Z,305.97
2019-02-18T03:33:19.553Z,305.66
2019-02-18T03:34:19.511Z,306.24
2019-02-18T03:35:19.498Z,305.91
2019-02-18T03:36:19.509Z,305.70
2019-02-18T03:37:19.485Z,305.73
2019-02-18T03:38:30.853Z,305.78
2019-02-18T03:39:20.472Z,305.96
2019-02-18T03:40:19.452Z,305.92
2019-02-18T03:41:19.476Z,305.74
2019-02-18T03:42:19.427Z,305.66
2019-02-18T03:43:19.409Z,305.65
2019-02-18T03:44:19.406Z,306.09
2019-02-18T03:45:19.397Z,305.96
2019-02-18T03:46:19.391Z,305.85
2019-02-18T03:47:19.412Z,305.31
2019-02-18T03:48:19.363Z,305.73
2019-02-18T03:49:19.356Z,305.94
2019-02-18T03:50:19.346Z,306.08
2019-02-18T03:51:19.336Z,306.17
2019-02-18T03:52:19.324Z,306.10
2019-02-18T03:53:19.343Z,305.92
2019-02-18T03:54:19.305Z,305.71
2019-02-18T03:55:19.275Z,306.11
2019-02-18T03:56:19.270Z,306.07
2019-02-18T03:57:19.284Z,305.52
2019-02-18T03:58:19.272Z,306.28
2019-02-18T03:59:19.252Z,305.67
2019-02-18T04:00:19.239Z,305.95
2019-02-18T04:01:19.244Z,306.03
2019-02-18T04:02:19.244Z,306.00
2019-02-18T04:03:19.198Z,306.22
2019-02-18T04:04:19.191Z,306.13
2019-02-18T04:05:19.189Z,306.28
2019-02-18T04:06:19.165Z,306.29
2019-02-18T04:07:19.156Z,305.64
2019-02-18T04:08:19.153Z,306.51
2019-02-18T04:09:19.135Z,305.90
2019-02-18T04:10:19.124Z,305.77
2019-02-18T04:11:19.119Z,305.60
2019-02-18T04:12:19.107Z,305.71
2019-02-18T04:13:19.115Z,305.83
2019-02-18T04:14:19.076Z,305.99
2019-02-18T04:15:19.067Z,306.11
2019-02-18T04:16:19.052Z,305.88
2019-02-18T04:17:19.050Z,306.21
2019-02-18T04:18:19.058Z,305.80
2019-02-18T04:19:19.055Z,305.63
2019-02-18T04:20:19.008Z,306.18
2019-02-18T04:21:18.998Z,305.79
2019-02-18T04:22:18.998Z,305.98
2019-02-18T04:23:18.993Z,306.16
2019-02-18T04:24:18.998Z,305.88
2019-02-18T04:25:18.956Z,305.99
2019-02-18T04:26:18.944Z,305.57
2019-02-18T04:27:18.930Z,305.75
2019-02-18T04:28:18.923Z,306.37
2019-02-18T04:29:18.911Z,306.33
2019-02-18T04:30:18.927Z,306.19
2019-02-18T04:31:18.895Z,306.05
2019-02-18T04:32:18.882Z,305.61
2019-02-18T04:33:18.868Z,305.77
2019-02-18T04:34:18.860Z,305.93
2019-02-18T04:35:18.865Z,305.80
2019-02-18T04:36:18.834Z,305.73
2019-02-18T04:37:18.845Z,305.58
2019-02-18T04:38:18.820Z,305.96
2019-02-18T04:39:18.797Z,306.12
2019-02-18T04:40:18.816Z,305.78
2019-02-18T04:41:18.808Z,305.73
2019-02-18T04:42:18.778Z,306.02
2019-02-18T04:43:18.770Z,306.07
2019-02-18T04:44:18.758Z,305.78
2019-02-18T04:45:18.767Z,305.93
2019-02-18T04:46:18.745Z,306.02
2019-02-18T04:47:18.721Z,306.06
2019-02-18T04:48:18.698Z,306.17
2019-02-18T04:49:18.686Z,305.63
2019-02-18T04:50:18.685Z,305.83
2019-02-18T04:51:18.703Z,306.05
2019-02-18T04:52:18.657Z,306.09
2019-02-18T04:53:18.642Z,305.69
2019-02-18T04:54:18.645Z,305.75
2019-02-18T04:55:18.631Z,306.16
2019-02-18T04:56:18.617Z,305.92
2019-02-18T04:57:18.626Z,305.92
2019-02-18T04:58:18.586Z,305.66
2019-02-18T04:59:18.581Z,305.94
2019-02-18T05:00:18.566Z,305.85
2019-02-18T05:01:18.560Z,306.02
2019-02-18T05:02:18.571Z,305.46
2019-02-18T05:03:18.544Z,305.60
2019-02-18T05:04:18.543Z,305.77
2019-02-18T05:05:18.531Z,306.23
2019-02-18T05:06:18.502Z,305.67
2019-02-18T05:07:18.526Z,305.88
2019-02-18T05:08:18.492Z,305.70
2019-02-18T05:09:18.479Z,306.00
2019-02-18T05:10:18.460Z,306.18
2019-02-18T05:11:18.454Z,305.56
2019-02-18T05:12:18.435Z,305.86
2019-02-18T05:13:18.454Z,306.13
2019-02-18T05:14:18.426Z,305.63
2019-02-18T05:15:18.420Z,306.09
2019-02-18T05:16:18.403Z,305.35
2019-02-18T05:17:18.389Z,305.71
2019-02-18T05:18:18.409Z,305.94
2019-02-18T05:19:18.369Z,305.77
2019-02-18T05:20:18.350Z,305.97
2019-02-18T05:21:18.347Z,305.83
2019-02-18T05:22:18.353Z,305.62
2019-02-18T05:23:18.328Z,305.82
2019-02-18T05:24:18.327Z,306.06
2019-02-18T05:25:18.306Z,305.69
2019-02-18T05:26:18.290Z,305.97
2019-02-18T05:27:18.284Z,306.12
2019-02-18T05:28:18.281Z,305.60
2019-02-18T05:29:18.286Z,305.99
2019-02-18T05:30:18.256Z,305.85
2019-02-18T05:31:18.235Z,305.89
2019-02-18T05:32:18.224Z,305.82
2019-02-18T05:33:18.218Z,306.16
2019-02-18T05:34:18.232Z,306.28
2019-02-18T05:35:18.200Z,305.72
2019-02-18T05:36:18.186Z,305.90
2019-02-18T05:37:18.183Z,305.82
2019-02-18T05:38:18.154Z,305.58
2019-02-18T05:39:18.710Z,305.74
2019-02-18T05:40:18.151Z,305.89
2019-02-18T05:41:18.147Z,306.08
2019-02-18T05:42:18.113Z,305.79
2019-02-18T05:43:18.106Z,305.96
2019-02-18T05:44:18.110Z,305.80
2019-02-18T05:45:18.160Z,306.32
2019-02-18T05:46:18.081Z,305.98
2019-02-18T05:47:18.067Z,305.95
2019-02-18T05:48:18.057Z,305.93
2019-02-18T05:49:18.044Z,305.82
2019-02-18T05:50:18.030Z,305.97
2019-02-18T05:51:18.068Z,306.34
2019-02-18T05:52:18.009Z,306.05
2019-02-18T05:53:17.991Z,305.48
2019-02-18T05:54:17.999Z,305.32
2019-02-18T05:55:17.979Z,305.38
2019-02-18T05:56:17.979Z,305.44
2019-02-18T05:57:17.968Z,306.27
2019-02-18T05:58:17.944Z,306.41
2019-02-18T05:59:17.936Z,305.89
2019-02-18T06:00:17.927Z,306.29
2019-02-18T06:01:17.948Z,306.18
2019-02-18T06:02:17.901Z,305.51
2019-02-18T06:03:17.887Z,305.99
2019-02-18T06:04:17.877Z,306.41
2019-02-18T06:05:17.869Z,306.43
2019-02-18T06:06:17.863Z,305.63
2019-02-18T06:07:17.869Z,305.48
2019-02-18T06:08:17.836Z,305.66
2019-02-18T06:09:28.469Z,305.73
2019-02-18T06:10:18.829Z,306.31
2019-02-18T06:11:17.797Z,305.62
2019-02-18T06:12:17.809Z,306.37
2019-02-18T06:13:17.800Z,305.87
2019-02-18T06:14:17.770Z,305.97
2019-02-18T06:15:17.751Z,305.52
2019-02-18T06:16:17.743Z,305.96
2019-02-18T06:17:17.751Z,305.91
2019-02-18T06:18:17.758Z,306.04
2019-02-18T06:19:17.722Z,305.70
2019-02-18T06:20:17.705Z,306.16
2019-02-18T06:21:17.703Z,305.81
2019-02-18T06:22:17.685Z,305.54
2019-02-18T06:23:17.687Z,306.03
2019-02-18T06:24:17.661Z,305.83
2019-02-18T06:25:17.645Z,305.98
2019-02-18T06:26:17.655Z,305.92
2019-02-18T06:27:17.641Z,305.82
2019-02-18T06:28:17.637Z,305.88
2019-02-18T06:29:17.601Z,306.16
2019-02-18T06:30:17.602Z,306.52
2019-02-18T06:31:17.590Z,305.78
2019-02-18T06:32:17.610Z,305.66
2019-02-18T06:33:17.582Z,305.84
2019-02-18T06:34:17.552Z,305.89
2019-02-18T06:35:17.534Z,306.10
2019-02-18T06:36:17.523Z,305.78
2019-02-18T06:37:17.517Z,306.34
2019-02-18T06:38:17.536Z,306.22
2019-02-18T06:39:17.499Z,305.99
2019-02-18T06:40:17.490Z,306.51
2019-02-18T06:41:17.477Z,306.71
2019-02-18T06:42:17.455Z,306.59
2019-02-18T06:43:17.469Z,306.35
2019-02-18T06:44:17.460Z,306.64
2019-02-18T06:45:17.436Z,306.62
2019-02-18T06:46:17.421Z,306.69
2019-02-18T06:47:17.411Z,306.37
2019-02-18T06:48:17.418Z,306.47
2019-02-18T06:49:17.391Z,307.25
2019-02-18T06:50:17.396Z,306.41
2019-02-18T06:51:17.371Z,306.61
2019-02-18T06:52:17.359Z,306.73
2019-02-18T06:53:17.381Z,306.61
2019-02-18T06:54:17.356Z,307.00
2019-02-18T06:55:17.315Z,307.36
2019-02-18T06:56:17.308Z,307.22
2019-02-18T06:57:17.299Z,307.37
2019-02-18T06:58:17.294Z,307.10
2019-02-18T06:59:17.300Z,307.28
2019-02-18T07:00:17.262Z,307.13
2019-02-18T07:01:17.255Z,307.51
2019-02-18T07:02:17.252Z,307.01
2019-02-18T07:03:18.592Z,307.08
2019-02-18T07:04:17.250Z,307.48
2019-02-18T07:05:17.214Z,307.14
2019-02-18T07:06:17.219Z,307.30
2019-02-18T07:07:17.187Z,307.46
2019-02-18T07:08:17.179Z,307.52
2019-02-18T07:09:17.181Z,307.50
2019-02-18T07:10:17.163Z,307.25
2019-02-18T07:11:17.172Z,307.83
2019-02-18T07:12:17.141Z,307.53
2019-02-18T07:13:17.131Z,307.80
2019-02-18T07:14:17.140Z,307.80
2019-02-18T07:15:17.103Z,307.71
2019-02-18T07:16:17.092Z,307.50
2019-02-18T07:17:17.084Z,307.27
2019-02-18T07:18:17.064Z,307.92
2019-02-18T07:19:17.051Z,307.85
2019-02-18T07:20:17.063Z,307.98
2019-02-18T07:21:17.033Z,307.76
2019-02-18T07:22:17.048Z,307.86
2019-02-18T07:23:17.020Z,307.74
2019-02-18T07:24:17.033Z,307.35
2019-02-18T07:25:17.000Z,307.18
2019-02-18T07:26:16.983Z,307.87
2019-02-18T07:27:16.990Z,307.41
2019-02-18T07:28:16.949Z,307.92
2019-02-18T07:29:16.947Z,307.72
2019-02-18T07:30:16.949Z,307.40
2019-02-18T07:31:16.928Z,307.93
2019-02-18T07:32:16.928Z,308.02
2019-02-18T07:33:16.898Z,308.03
2019-02-18T07:34:16.897Z,307.85
2019-02-18T07:35:16.921Z,307.27
2019-02-18T07:36:16.880Z,307.87
2019-02-18T07:37:16.871Z,308.52
2019-02-18T07:38:16.845Z,307.98
2019-02-18T07:39:16.844Z,307.52
2019-02-18T07:40:16.826Z,308.12
2019-02-18T07:41:16.846Z,307.54
2019-02-18T07:42:16.814Z,308.31
2019-02-18T07:43:16.801Z,307.68
2019-02-18T07:44:16.787Z,307.63
2019-02-18T07:45:16.776Z,308.02
2019-02-18T07:46:16.758Z,307.89
2019-02-18T07:47:16.759Z,307.79
2019-02-18T07:48:16.763Z,307.45
2019-02-18T07:49:16.739Z,307.78
2019-02-18T07:50:20.582Z,307.36
2019-02-18T07:51:16.701Z,308.15
2019-02-18T07:52:16.721Z,307.86
2019-02-18T07:53:16.687Z,307.96
2019-02-18T07:54:16.683Z,308.19
2019-02-18T07:55:16.670Z,308.04
2019-02-18T07:56:16.658Z,308.51
2019-02-18T07:57:16.644Z,308.20
2019-02-18T07:58:16.643Z,308.76
2019-02-18T07:59:16.617Z,308.54
2019-02-18T08:00:16.605Z,308.18
2019-02-18T08:01:16.594Z,308.84
2019-02-18T08:02:16.611Z,308.85
2019-02-18T08:03:16.607Z,308.95
2019-02-18T08:04:16.558Z,308.86
2019-02-18T08:05:16.550Z,309.33
2019-02-18T08:06:16.548Z,308.64
2019-02-18T08:07:16.532Z,308.58
2019-02-18T08:08:16.549Z,308.75
2019-02-18T08:09:16.511Z,308.63
2019-02-18T08:10:16.499Z,308.88
2019-02-18T08:11:16.487Z,308.93
2019-02-18T08:12:16.470Z,309.18
2019-02-18T08:13:16.472Z,308.78
2019-02-18T08:14:16.483Z,308.92
2019-02-18T08:15:16.442Z,308.90
2019-02-18T08:16:16.453Z,309.03
2019-02-18T08:17:16.426Z,308.89
2019-02-18T08:18:16.406Z,309.23
2019-02-18T08:19:16.413Z,308.69
2019-02-18T08:20:16.383Z,309.02
2019-02-18T08:21:16.379Z,308.89
2019-02-18T08:22:16.362Z,308.30
2019-02-18T08:23:16.347Z,308.36
2019-02-18T08:24:16.357Z,308.29
2019-02-18T08:25:16.326Z,308.81
2019-02-18T08:26:16.328Z,308.58
2019-02-18T08:27:16.327Z,309.24
2019-02-18T08:28:16.304Z,309.33
2019-02-18T08:29:16.336Z,308.44
2019-02-18T08:30:16.276Z,309.06
2019-02-18T08:31:16.255Z,308.83
2019-02-18T08:32:16.250Z,308.73
2019-02-18T08:33:16.255Z,308.53
2019-02-18T08:34:16.233Z,308.92
2019-02-18T08:35:16.258Z,309.48
2019-02-18T08:36:16.201Z,309.00
2019-02-18T08:37:16.193Z,308.75
2019-02-18T08:38:16.192Z,308.44
2019-02-18T08:39:16.180Z,309.42
2019-02-18T08:40:22.363Z,309.38
2019-02-18T08:41:17.175Z,309.21
2019-02-18T08:42:16.136Z,309.42
2019-02-18T08:43:16.129Z,308.87
2019-02-18T08:44:16.117Z,309.46
2019-02-18T08:45:16.105Z,309.46
2019-02-18T08:46:16.129Z,308.85
2019-02-18T08:47:16.095Z,309.51
2019-02-18T08:48:16.082Z,309.21
2019-02-18T08:49:16.101Z,309.68
2019-02-18T08:50:16.054Z,308.85
2019-02-18T08:51:16.048Z,309.62
2019-02-18T08:52:16.043Z,309.92
2019-02-18T08:53:16.030Z,309.43
2019-02-18T08:54:16.014Z,309.88
2019-02-18T08:55:16.018Z,309.70
2019-02-18T08:56:15.997Z,309.64
2019-02-18T08:57:15.971Z,309.54
2019-02-18T08:58:15.989Z,310.10
2019-02-18T08:59:15.965Z,310.64
2019-02-18T09:00:15.965Z,310.88
2019-02-18T09:01:15.938Z,310.75
2019-02-18T09:02:15.927Z,310.24
2019-02-18T09:03:15.946Z,310.56
2019-02-18T09:04:15.896Z,310.23
2019-02-18T09:05:15.920Z,309.98
2019-02-18T09:06:15.887Z,310.35
2019-02-18T09:07:15.876Z,310.74
2019-02-18T09:08:15.851Z,310.12
2019-02-18T09:09:15.864Z,310.60
2019-02-18T09:10:15.850Z,310.86
2019-02-18T09:11:15.832Z,310.72
2019-02-18T09:12:15.826Z,309.81
2019-02-18T09:13:15.810Z,310.34
2019-02-18T09:14:15.809Z,310.90
2019-02-18T09:15:15.782Z,310.35
2019-02-18T09:16:15.783Z,310.74
2019-02-18T09:17:15.756Z,310.65
2019-02-18T09:18:15.756Z,310.32
2019-02-18T09:19:15.750Z,310.33
2019-02-18T09:20:15.735Z,310.02
2019-02-18T09:21:15.746Z,309.79
2019-02-18T09:22:15.698Z,310.22
2019-02-18T09:23:15.701Z,309.96
2019-02-18T09:24:15.714Z,310.00
2019-02-18T09:25:15.693Z,309.96
2019-02-18T09:26:15.685Z,309.83
2019-02-18T09:27:15.678Z,309.52
2019-02-18T09:28:15.641Z,309.98
2019-02-18T09:29:15.628Z,309.70
2019-02-18T09:30:15.624Z,309.34
2019-02-18T09:31:15.641Z,308.94
2019-02-18T09:32:15.606Z,309.33
2019-02-18T09:33:15.596Z,309.66
2019-02-18T09:34:15.569Z,309.26
2019-02-18T09:35:15.551Z,308.95
2019-02-18T09:36:15.559Z,309.45
2019-02-18T09:37:15.557Z,309.16
2019-02-18T09:38:24.394Z,309.03
2019-02-18T09:39:16.531Z,309.30
2019-02-18T09:40:15.511Z,309.33
2019-02-18T09:41:15.531Z,308.90
2019-02-18T09:42:15.490Z,308.78
2019-02-18T09:43:15.476Z,308.87
2019-02-18T09:44:15.469Z,309.60
2019-02-18T09:45:15.463Z,309.11
2019-02-18T09:46:15.444Z,309.18
2019-02-18T09:47:15.453Z,309.05
2019-02-18T09:48:15.451Z,308.24
2019-02-18T09:49:15.409Z,308.29
2019-02-18T09:50:15.416Z,309.67
2019-02-18T09:51:15.405Z,308.82
2019-02-18T09:52:15.426Z,308.99
2019-02-18T09:53:15.379Z,308.80
2019-02-18T09:54:15.378Z,309.11
2019-02-18T09:55:15.350Z,310.01
2019-02-18T09:56:15.355Z,308.52
2019-02-18T09:57:15.345Z,308.82
2019-02-18T09:58:15.336Z,309.50
2019-02-18T09:59:15.310Z,309.86
2019-02-18T10:00:15.301Z,309.35
2019-02-18T10:01:15.290Z,309.33
2019-02-18T10:02:15.287Z,309.75
2019-02-18T10:03:15.310Z,309.84
2019-02-18T10:04:15.272Z,310.57
2019-02-18T10:05:15.257Z,309.88
2019-02-18T10:06:15.244Z,309.92
2019-02-18T10:07:15.246Z,309.70
2019-02-18T10:08:15.212Z,309.42
2019-02-18T10:09:15.218Z,309.40
2019-02-18T10:10:15.201Z,309.87
2019-02-18T10:11:15.198Z,309.72
2019-02-18T10:12:18.317Z,308.90
2019-02-18T10:13:15.234Z,308.88
2019-02-18T10:14:15.188Z,308.61
2019-02-18T10:15:15.151Z,308.32
2019-02-18T10:16:15.141Z,309.11
2019-02-18T10:17:15.134Z,308.70
2019-02-18T10:18:15.107Z,309.15
2019-02-18T10:19:15.127Z,308.81
2019-02-18T10:20:15.090Z,308.18
2019-02-18T10:21:15.106Z,308.44
2019-02-18T10:22:15.100Z,308.69
2019-02-18T10:23:15.067Z,308.75
2019-02-18T10:24:15.076Z,308.52
2019-02-18T10:25:15.043Z,307.94
2019-02-18T10:26:15.102Z,307.79
2019-02-18T10:27:15.021Z,307.30
2019-02-18T10:28:15.024Z,308.19
2019-02-18T10:29:15.025Z,307.75
2019-02-18T10:30:15.017Z,307.14
2019-02-18T10:31:14.977Z,306.61
2019-02-18T10:32:14.965Z,306.55
2019-02-18T10:33:14.953Z,306.85
2019-02-18T10:34:14.956Z,306.04
2019-02-18T10:35:14.943Z,305.92
2019-02-18T10:36:14.957Z,305.71
2019-02-18T10:37:14.920Z,306.14
2019-02-18T10:38:14.904Z,305.70
2019-02-18T10:39:14.893Z,305.39
2019-02-18T10:40:14.925Z,304.81
2019-02-18T10:41:14.880Z,304.97
2019-02-18T10:42:14.870Z,304.96
2019-02-18T10:43:14.871Z,305.55
2019-02-18T10:44:14.843Z,305.14
2019-02-18T10:45:14.854Z,304.94
2019-02-18T10:46:14.855Z,305.35
2019-02-18T10:47:14.825Z,305.19
2019-02-18T10:48:14.809Z,304.77
2019-02-18T10:49:19.726Z,304.88
2019-02-18T10:50:15.776Z,304.21
2019-02-18T10:51:14.818Z,304.45
2019-02-18T10:52:14.758Z,304.15
2019-02-18T10:53:14.747Z,304.51
2019-02-18T10:54:14.738Z,304.64
2019-02-18T10:55:14.737Z,304.40
2019-02-18T10:56:14.719Z,303.34
2019-02-18T10:57:14.742Z,303.43
2019-02-18T10:58:14.690Z,303.36
2019-02-18T10:59:14.687Z,303.37
2019-02-18T11:00:14.679Z,303.60
2019-02-18T11:01:14.673Z,302.70
2019-02-18T11:02:14.663Z,303.82
2019-02-18T11:03:14.647Z,302.73
2019-02-18T11:04:14.629Z,302.78
2019-02-18T11:05:14.616Z,302.52
2019-02-18T11:06:14.618Z,302.66
2019-02-18T11:07:14.662Z,302.34
2019-02-18T11:08:14.604Z,302.11
2019-02-18T11:09:14.586Z,301.77
2019-02-18T11:10:14.569Z,302.03
2019-02-18T11:11:17.133Z,302.24
2019-02-18T11:12:14.539Z,301.74
2019-02-18T11:13:14.615Z,301.32
2019-02-18T11:14:14.530Z,301.97
2019-02-18T11:15:14.543Z,301.85
2019-02-18T11:16:14.510Z,301.67
2019-02-18T11:17:14.494Z,302.05
2019-02-18T11:18:14.491Z,302.03
2019-02-18T11:19:14.494Z,302.51
2019-02-18T11:20:14.475Z,302.36
2019-02-18T11:21:14.459Z,302.68
2019-02-18T11:22:14.441Z,302.81
2019-02-18T11:23:14.424Z,303.44
2019-02-18T11:24:14.441Z,302.51
2019-02-18T11:25:14.412Z,303.96
2019-02-18T11:26:14.406Z,303.06
2019-02-18T11:27:14.414Z,303.78
2019-02-18T11:28:14.390Z,303.63
2019-02-18T11:29:14.417Z,303.78
2019-02-18T11:30:14.363Z,302.85
2019-02-18T11:31:14.348Z,303.68
2019-02-18T11:32:14.346Z,303.32
2019-02-18T11:33:14.342Z,303.54
2019-02-18T11:34:14.324Z,304.17
2019-02-18T11:35:14.338Z,304.00
2019-02-18T11:36:14.315Z,303.94
2019-02-18T11:37:14.295Z,303.89
2019-02-18T11:38:14.283Z,304.00
2019-02-18T11:39:14.278Z,303.51
2019-02-18T11:40:14.270Z,303.47
2019-02-18T11:41:14.287Z,303.92
2019-02-18T11:42:14.229Z,303.78
2019-02-18T11:43:14.217Z,303.36
2019-02-18T11:44:14.215Z,303.30
2019-02-18T11:45:14.236Z,303.18
2019-02-18T11:46:14.200Z,302.50
2019-02-18T11:47:14.241Z,302.57
2019-02-18T11:48:14.195Z,302.30
2019-02-18T11:49:14.164Z,303.12
2019-02-18T11:50:14.162Z,301.58
2019-02-18T11:51:14.152Z,301.96
2019-02-18T11:52:14.169Z,301.52
2019-02-18T11:53:14.124Z,300.60
2019-02-18T11:54:14.114Z,299.58
2019-02-18T11:55:14.107Z,298.93
2019-02-18T11:56:14.088Z,298.71
2019-02-18T11:57:14.082Z,297.58
2019-02-18T11:58:14.092Z,296.69
2019-02-18T11:59:23.732Z,296.30
2019-02-18T12:00:15.059Z,296.19
2019-02-18T12:01:14.041Z,295.21
2019-02-18T12:02:14.038Z,295.28
2019-02-18T12:03:14.033Z,295.23
2019-02-18T12:04:14.006Z,295.51
2019-02-18T12:05:14.015Z,295.55
2019-02-18T12:06:13.974Z,295.46
2019-02-18T12:07:13.964Z,295.08
2019-02-18T12:08:14.000Z,294.35
2019-02-18T12:09:13.946Z,295.05
2019-02-18T12:10:13.971Z,294.87
2019-02-18T12:11:13.933Z,294.96
2019-02-18T12:12:13.922Z,294.79
2019-02-18T12:13:13.918Z,295.69
2019-02-18T12:14:13.948Z,295.73
2019-02-18T12:15:13.914Z,295.95
2019-02-18T12:16:13.866Z,295.96
2019-02-18T12:17:20.508Z,296.38
2019-02-18T12:18:14.865Z,296.22
2019-02-18T12:19:13.844Z,296.87
2019-02-18T12:20:13.910Z,296.67
2019-02-18T12:21:14.085Z,297.08
2019-02-18T12:22:13.822Z,297.17
2019-02-18T12:23:13.803Z,297.61
2019-02-18T12:24:13.795Z,297.31
2019-02-18T12:25:13.779Z,298.25
2019-02-18T12:26:13.778Z,298.02
2019-02-18T12:27:13.748Z,298.11
2019-02-18T12:28:13.741Z,299.02